Time;durP1;ratioP1;P1;durP2;ratioP2;P2;SDS_P1;SDS_P2;PMS_P1;PMS_P2;Temp;Humidity;BMP_temperature;BMP_pressure;BME280_temperature;BME280_humidity;BME280_pressure;Samples;Min_cycle;Max_cycle;Signal;HPM_P1;HPM_P2
2024/01/12 00:00:00;;;;;;;80.45;27.88;;;;;;;1.21;100.00;103372.59;5268734;28;20063;-73
2024/01/12 00:02:31;;;;;;;80.60;30.38;;;;;;;1.23;100.00;103378.72;5273950;28;20598;-73
2024/01/12 00:05:01;;;;;;;80.03;29.48;;;;;;;1.27;100.00;103385.66;5268390;28;20043;-73
2024/01/12 00:07:31;;;;;;;70.35;28.50;;;;;;;1.26;100.00;103386.56;5274364;28;20031;-73
2024/01/12 00:10:02;;;;;;;85.72;28.25;;;;;;;1.24;100.00;103382.22;5277537;28;20174;-73
2024/01/12 00:12:33;;;;;;;77.05;28.90;;;;;;;1.26;100.00;103378.63;5276696;28;20130;-74
2024/01/12 00:15:05;;;;;;;92.35;28.00;;;;;;;1.25;100.00;103376.88;5275551;28;20096;-73
2024/01/12 00:17:35;;;;;;;81.57;28.48;;;;;;;1.24;100.00;103372.50;5277190;28;20163;-73
2024/01/12 00:20:06;;;;;;;83.15;27.92;;;;;;;1.21;100.00;103369.97;5270289;28;20032;-73
2024/01/12 00:22:37;;;;;;;79.07;27.70;;;;;;;1.20;100.00;103368.19;5272566;27;20044;-73
2024/01/12 00:25:08;;;;;;;93.00;29.20;;;;;;;1.17;100.00;103368.31;5273222;28;20031;-73
2024/01/12 00:27:38;;;;;;;83.45;28.20;;;;;;;1.19;100.00;103371.78;5277044;28;20027;-73
2024/01/12 00:30:09;;;;;;;84.10;27.63;;;;;;;1.19;100.00;103369.13;5270952;28;20063;-74
2024/01/12 00:32:39;;;;;;;80.57;29.73;;;;;;;1.17;100.00;103370.97;5270895;28;20055;-73
2024/01/12 00:35:10;;;;;;;78.57;28.77;;;;;;;1.17;100.00;103368.31;5273662;28;20500;-73
2024/01/12 00:37:41;;;;;;;84.30;30.88;;;;;;;1.16;100.00;103369.22;5275719;28;20023;-73
2024/01/12 00:40:11;;;;;;;81.95;28.20;;;;;;;1.18;100.00;103371.81;5274095;28;20074;-73
2024/01/12 00:42:42;;;;;;;78.30;27.90;;;;;;;1.18;100.00;103380.63;5279087;28;20028;-73
2024/01/12 00:45:12;;;;;;;81.68;28.67;;;;;;;1.22;100.00;103384.91;5269851;28;20050;-73
2024/01/12 00:47:43;;;;;;;92.00;29.40;;;;;;;1.23;100.00;103383.13;5269369;28;20031;-73
2024/01/12 00:50:13;;;;;;;87.38;30.67;;;;;;;1.22;100.00;103391.97;5270702;28;20626;-73
2024/01/12 00:52:44;;;;;;;90.00;30.23;;;;;;;1.21;100.00;103385.81;5275004;28;20055;-73
2024/01/12 00:55:15;;;;;;;89.88;31.00;;;;;;;1.23;100.00;103384.00;5269553;28;20043;-73
2024/01/12 00:57:45;;;;;;;88.07;30.85;;;;;;;1.21;100.00;103385.81;5274616;28;20023;-73
2024/01/12 01:00:16;;;;;;;77.75;27.55;;;;;;;1.23;100.00;103388.41;5268077;28;20035;-73
2024/01/12 01:02:46;;;;;;;81.78;29.25;;;;;;;1.22;100.00;103394.63;5278566;28;20035;-73
2024/01/12 01:05:17;;;;;;;82.15;27.88;;;;;;;1.20;100.00;103391.13;5271370;28;20036;-73
2024/01/12 01:07:47;;;;;;;81.80;27.88;;;;;;;1.18;100.00;103388.56;5278465;28;20107;-73
2024/01/12 01:10:18;;;;;;;77.20;27.05;;;;;;;1.20;100.00;103392.00;5270426;28;20023;-73
2024/01/12 01:12:48;;;;;;;83.40;26.00;;;;;;;1.19;100.00;103387.63;5273356;28;20039;-73
2024/01/12 01:15:19;;;;;;;76.22;26.83;;;;;;;1.17;100.00;103389.47;5273510;28;20128;-73
2024/01/12 01:17:50;;;;;;;73.63;26.80;;;;;;;1.16;100.00;103393.03;5273968;28;20030;-73
2024/01/12 01:20:21;;;;;;;71.43;25.80;;;;;;;1.17;100.00;103392.09;5266702;28;20040;-73
2024/01/12 01:22:52;;;;;;;75.50;27.95;;;;;;;1.17;100.00;103389.47;5271131;28;20032;-73
2024/01/12 01:25:22;;;;;;;80.93;27.27;;;;;;;1.17;100.00;103384.19;5258890;28;20032;-73
2024/01/12 01:27:54;;;;;;;79.85;28.65;;;;;;;1.18;100.00;103391.19;5273073;28;20031;-73
2024/01/12 01:30:25;;;;;;;78.05;28.48;;;;;;;1.21;100.00;103396.41;5278504;28;20024;-73
2024/01/12 01:32:55;;;;;;;65.90;26.25;;;;;;;1.19;100.00;103392.91;5266977;28;20036;-73
2024/01/12 01:35:26;;;;;;;81.75;28.75;;;;;;;1.19;100.00;103400.84;5274850;28;20028;-73
2024/01/12 01:37:56;;;;;;;77.65;26.45;;;;;;;1.21;100.00;103400.84;5268198;28;20028;-73
2024/01/12 01:40:27;;;;;;;69.60;27.05;;;;;;;1.22;100.00;103407.84;5267575;28;20085;-73
2024/01/12 01:43:07;;;;;;;65.32;24.10;;;;;;;1.21;100.00;103396.41;5274584;28;20039;-73
2024/01/12 01:45:38;;;;;;;63.50;24.00;;;;;;;1.23;100.00;103402.50;5276744;28;20062;-73
2024/01/12 01:48:08;;;;;;;70.65;24.40;;;;;;;1.25;100.00;103408.59;5269329;28;20028;-73
2024/01/12 01:50:39;;;;;;;71.38;24.88;;;;;;;1.26;100.00;103410.38;5271056;28;20062;-73
2024/01/12 01:53:10;;;;;;;72.82;26.30;;;;;;;1.28;100.00;103411.19;5274483;28;20477;-73
2024/01/12 01:55:41;;;;;;;76.47;26.27;;;;;;;1.27;100.00;103409.44;5279835;28;20028;-73
2024/01/12 01:58:12;;;;;;;72.20;26.38;;;;;;;1.25;100.00;103413.91;5276052;28;20388;-73
2024/01/12 02:00:44;;;;;;;72.20;25.67;;;;;;;1.28;100.00;103412.97;5279065;28;20035;-73
2024/01/12 02:03:15;;;;;;;73.15;27.90;;;;;;;1.26;100.00;103413.00;5273427;28;20083;-73
2024/01/12 02:05:48;;;;;;;79.85;26.63;;;;;;;1.31;100.00;103418.19;5273596;28;20035;-73
2024/01/12 02:08:19;;;;;;;77.97;28.25;;;;;;;1.37;100.00;103412.69;5276451;28;20499;-73
2024/01/12 02:10:52;;;;;;;82.72;29.55;;;;;;;1.40;100.00;103412.59;5280902;28;20027;-73
2024/01/12 02:13:23;;;;;;;74.10;27.45;;;;;;;1.44;100.00;103408.09;5272473;28;20052;-73
2024/01/12 02:15:53;;;;;;;83.63;26.45;;;;;;;1.48;100.00;103410.59;5275977;28;20063;-73
2024/01/12 02:18:24;;;;;;;73.78;26.30;;;;;;;1.53;100.00;103411.34;5274928;28;20779;-73
2024/01/12 02:21:00;;;;;;;72.90;27.17;;;;;;;1.56;100.00;103407.75;5273406;28;20477;-73
2024/01/12 02:23:31;;;;;;;77.55;27.40;;;;;;;1.63;100.00;103411.94;5266574;28;20043;-73
2024/01/12 02:26:02;;;;;;;73.88;25.75;;;;;;;1.67;100.00;103399.47;5272072;28;20033;-73
2024/01/12 02:28:32;;;;;;;79.95;26.88;;;;;;;1.66;100.00;103401.25;5273775;27;20489;-73
2024/01/12 02:31:03;;;;;;;73.95;25.65;;;;;;;1.67;100.00;103402.13;5277999;28;20119;-73
2024/01/12 02:33:33;;;;;;;64.82;25.48;;;;;;;1.64;100.00;103404.84;5266855;28;20474;-73
2024/01/12 02:36:04;;;;;;;82.05;27.73;;;;;;;1.63;100.00;103401.34;5271367;27;20099;-73
2024/01/12 02:38:35;;;;;;;74.63;26.13;;;;;;;1.61;100.00;103397.88;5272657;28;20027;-73
2024/01/12 02:41:05;;;;;;;74.88;25.60;;;;;;;1.63;100.00;103397.84;5268103;28;20501;-73
2024/01/12 02:43:36;;;;;;;71.35;25.65;;;;;;;1.66;100.00;103390.69;5275668;28;20038;-73
2024/01/12 02:46:06;;;;;;;66.25;23.80;;;;;;;1.73;100.00;103394.84;5270687;28;20050;-73
2024/01/12 02:48:37;;;;;;;68.30;24.60;;;;;;;1.70;100.00;103380.84;5274568;28;20046;-73
2024/01/12 02:51:07;;;;;;;73.13;24.95;;;;;;;1.72;100.00;103381.69;5268691;28;20481;-72
2024/01/12 02:53:38;;;;;;;74.60;23.20;;;;;;;1.77;100.00;103390.34;5277628;28;20028;-73
2024/01/12 02:56:09;;;;;;;78.10;24.88;;;;;;;1.77;100.00;103385.91;5276328;28;20103;-73
2024/01/12 02:58:40;;;;;;;66.82;24.20;;;;;;;1.75;100.00;103369.19;5268030;28;20109;-73
2024/01/12 03:01:11;;;;;;;67.53;23.65;;;;;;;1.71;100.00;103361.44;5269921;28;20593;-73
2024/01/12 03:03:41;;;;;;;64.65;25.60;;;;;;;1.67;100.00;103363.28;5277699;28;20019;-73
2024/01/12 03:06:22;;;;;;;71.63;24.13;;;;;;;1.66;100.00;103374.81;5271319;28;20080;-73
2024/01/12 03:08:53;;;;;;;75.47;24.60;;;;;;;1.64;100.00;103371.31;5278130;28;20556;-73
2024/01/12 03:11:24;;;;;;;66.03;23.55;;;;;;;1.61;100.00;103371.44;5271408;28;20016;-73
2024/01/12 03:13:55;;;;;;;71.93;25.27;;;;;;;1.61;100.00;103363.50;5274097;28;20023;-73
2024/01/12 03:16:27;;;;;;;68.22;26.88;;;;;;;1.61;100.00;103368.78;5278947;28;20023;-73
2024/01/12 03:18:58;;;;;;;71.45;23.48;;;;;;;1.61;100.00;103363.50;5269644;28;20037;-73
2024/01/12 03:21:28;;;;;;;68.35;23.65;;;;;;;1.67;100.00;103358.00;5272664;28;20027;-73
2024/01/12 03:23:59;;;;;;;64.38;22.95;;;;;;;1.75;100.00;103365.69;5265961;27;20031;-73
2024/01/12 03:26:29;;;;;;;66.88;22.75;;;;;;;1.72;100.00;103358.72;5269768;28;20012;-73
2024/01/12 03:29:00;;;;;;;58.83;20.95;;;;;;;1.76;100.00;103357.72;5277236;28;20019;-73
2024/01/12 03:31:31;;;;;;;62.42;22.30;;;;;;;1.80;100.00;103356.69;5267388;28;20030;-73
2024/01/12 03:34:02;;;;;;;64.45;22.17;;;;;;;1.83;100.00;103353.09;5274043;27;20492;-73
2024/01/12 03:36:33;;;;;;;63.08;22.60;;;;;;;1.82;100.00;103356.66;5274388;28;20471;-73
2024/01/12 03:39:04;;;;;;;60.80;21.58;;;;;;;1.83;100.00;103357.53;5270706;28;20112;-73
2024/01/12 03:41:34;;;;;;;65.28;22.33;;;;;;;1.80;100.00;103353.19;5273246;28;20504;-73
2024/01/12 03:44:05;;;;;;;62.72;21.70;;;;;;;1.80;100.00;103351.41;5270684;28;20024;-73
2024/01/12 03:46:35;;;;;;;68.60;22.48;;;;;;;1.81;100.00;103350.50;5270652;28;20031;-73
2024/01/12 03:49:06;;;;;;;75.40;23.92;;;;;;;1.83;100.00;103350.44;5270010;28;20095;-73
2024/01/12 03:51:36;;;;;;;67.53;21.40;;;;;;;1.82;100.00;103340.78;5275166;28;20031;-73
2024/01/12 03:54:07;;;;;;;71.90;22.20;;;;;;;1.83;100.00;103355.75;5268793;28;20027;-73
2024/01/12 03:56:37;;;;;;;70.80;19.98;;;;;;;1.84;100.00;103348.66;5265429;28;20284;-73
2024/01/12 03:59:10;;;;;;;67.20;21.77;;;;;;;1.82;100.00;103351.38;5270954;28;20023;-73
2024/01/12 04:01:43;;;;;;;57.47;22.65;;;;;;;1.86;100.00;103355.66;5272214;28;20046;-73
2024/01/12 04:04:13;;;;;;;59.28;19.73;;;;;;;1.86;100.00;103352.13;5266329;28;20074;-73
2024/01/12 04:06:44;;;;;;;64.07;21.52;;;;;;;1.86;100.00;103354.75;5270846;28;20059;-73
2024/01/12 04:09:15;;;;;;;60.63;21.23;;;;;;;1.83;100.00;103361.03;5272707;28;20473;-73
2024/01/12 04:11:46;;;;;;;55.45;19.98;;;;;;;1.81;100.00;103355.81;5274084;28;20032;-73
2024/01/12 04:14:16;;;;;;;74.65;21.05;;;;;;;1.83;100.00;103346.94;5273514;28;20031;-73
2024/01/12 04:16:46;;;;;;;60.25;22.90;;;;;;;1.84;100.00;103343.38;5276016;28;20034;-73
2024/01/12 04:19:17;;;;;;;67.43;20.05;;;;;;;1.86;100.00;103355.66;5275205;28;20107;-73
2024/01/12 04:21:47;;;;;;;55.13;19.23;;;;;;;1.90;100.00;103349.31;5272228;28;20036;-73
2024/01/12 04:24:18;;;;;;;63.20;19.30;;;;;;;1.95;100.00;103360.63;5269461;28;20020;-73
2024/01/12 04:26:48;;;;;;;62.20;21.33;;;;;;;1.95;100.00;103350.03;5273996;27;20110;-73
2024/01/12 04:29:19;;;;;;;54.17;20.00;;;;;;;1.92;100.00;103349.28;5269671;28;20099;-73
2024/01/12 04:31:49;;;;;;;56.75;20.30;;;;;;;1.90;100.00;103354.63;5271996;28;20092;-73
2024/01/12 04:34:20;;;;;;;60.50;20.70;;;;;;;1.90;100.00;103348.47;5271573;28;20110;-73
2024/01/12 04:36:50;;;;;;;57.95;19.67;;;;;;;1.89;100.00;103342.31;5270921;28;20809;-73
2024/01/12 04:39:21;;;;;;;57.97;20.60;;;;;;;1.90;100.00;103332.56;5266126;28;20358;-73
2024/01/12 04:41:52;;;;;;;57.25;20.05;;;;;;;1.88;100.00;103329.13;5270556;28;20031;-73
2024/01/12 04:44:22;;;;;;;54.17;18.52;;;;;;;1.87;100.00;103330.91;5267461;28;20028;-73
2024/01/12 04:46:53;;;;;;;54.33;19.80;;;;;;;1.86;100.00;103326.53;5272274;28;20028;-73
2024/01/12 04:49:23;;;;;;;54.15;18.70;;;;;;;1.83;100.00;103328.41;5272690;28;20085;-73
2024/01/12 04:51:54;;;;;;;61.90;20.42;;;;;;;1.80;100.00;103324.06;5270190;28;20024;-73
2024/01/12 04:54:24;;;;;;;61.42;20.05;;;;;;;1.79;100.00;103327.63;5269816;28;20431;-73
2024/01/12 04:56:55;;;;;;;64.07;20.00;;;;;;;1.78;100.00;103331.19;5274923;28;20027;-73
2024/01/12 04:59:25;;;;;;;63.00;19.52;;;;;;;1.82;100.00;103335.47;5269180;28;20389;-73
2024/01/12 05:01:55;;;;;;;65.40;20.63;;;;;;;1.85;100.00;103329.22;5270948;28;20520;-73
2024/01/12 05:04:26;;;;;;;48.95;18.65;;;;;;;1.81;100.00;103326.69;5267134;28;20115;-73
2024/01/12 05:06:56;;;;;;;46.97;18.13;;;;;;;1.84;100.00;103328.34;5274487;27;20162;-73
2024/01/12 05:09:27;;;;;;;53.03;18.50;;;;;;;1.87;100.00;103330.91;5272850;28;20626;-73
2024/01/12 05:11:59;;;;;;;57.50;19.30;;;;;;;1.86;100.00;103330.94;5265979;28;20024;-73
2024/01/12 05:14:29;;;;;;;58.47;18.60;;;;;;;1.87;100.00;103332.69;5273364;28;20031;-73
2024/01/12 05:17:00;;;;;;;54.75;18.65;;;;;;;1.89;100.00;103341.44;5272087;28;20031;-73
2024/01/12 05:19:30;;;;;;;61.53;18.05;;;;;;;1.91;100.00;103350.19;5269201;28;20016;-73
2024/01/12 05:22:01;;;;;;;51.95;17.75;;;;;;;1.93;100.00;103354.53;5275235;28;20023;-73
2024/01/12 05:24:31;;;;;;;61.92;19.23;;;;;;;1.93;100.00;103343.94;5275213;28;20481;-73
2024/01/12 05:27:02;;;;;;;50.90;18.67;;;;;;;1.92;100.00;103359.88;5272299;28;20090;-73
2024/01/12 05:29:32;;;;;;;61.25;18.70;;;;;;;1.90;100.00;103357.25;5274971;28;20028;-73
2024/01/12 05:32:03;;;;;;;52.60;19.40;;;;;;;1.89;100.00;103362.63;5272278;28;20028;-73
2024/01/12 05:34:34;;;;;;;44.53;18.15;;;;;;;1.89;100.00;103362.63;5274216;28;20054;-74
2024/01/12 05:37:04;;;;;;;63.15;19.60;;;;;;;1.92;100.00;103373.97;5277606;28;20016;-73
2024/01/12 05:39:34;;;;;;;48.72;18.13;;;;;;;1.91;100.00;103366.06;5273184;28;20080;-73
2024/01/12 05:42:06;;;;;;;65.25;19.05;;;;;;;1.92;100.00;103359.88;5272225;28;20110;-73
2024/01/12 05:44:36;;;;;;;42.47;16.45;;;;;;;1.91;100.00;103364.31;5271648;28;20043;-73
2024/01/12 05:47:07;;;;;;;59.45;18.50;;;;;;;1.91;100.00;103359.03;5273919;28;20500;-73
2024/01/12 05:49:37;;;;;;;60.03;18.23;;;;;;;1.93;100.00;103361.63;5272715;28;20377;-73
2024/01/12 05:52:08;;;;;;;55.42;17.17;;;;;;;1.93;100.00;103365.13;5271861;28;20178;-73
2024/01/12 05:54:39;;;;;;;52.05;17.98;;;;;;;1.94;100.00;103365.97;5275732;28;20044;-73
2024/01/12 05:57:10;;;;;;;52.88;16.88;;;;;;;1.94;100.00;103358.91;5268228;28;20016;-73
2024/01/12 05:59:40;;;;;;;54.38;18.48;;;;;;;1.91;100.00;103360.78;5276355;28;20096;-73
2024/01/12 06:02:14;;;;;;;49.00;16.75;;;;;;;1.93;100.00;103353.66;5272644;28;20131;-73
2024/01/12 06:04:44;;;;;;;48.95;15.85;;;;;;;1.92;100.00;103350.16;5275562;28;20673;-73
2024/01/12 06:07:15;;;;;;;45.33;15.95;;;;;;;1.91;100.00;103334.31;5271656;28;20035;-73
2024/01/12 06:09:45;;;;;;;52.20;16.23;;;;;;;1.93;100.00;103340.44;5276181;28;20652;-73
2024/01/12 06:12:15;;;;;;;46.05;14.85;;;;;;;1.93;100.00;103346.59;5272283;28;20439;-73
2024/01/12 06:14:46;;;;;;;46.15;14.60;;;;;;;1.95;100.00;103354.47;5272807;28;20027;-73
2024/01/12 06:17:17;;;;;;;50.80;14.75;;;;;;;2.02;100.00;103350.72;5273632;28;20016;-73
2024/01/12 06:19:47;;;;;;;46.65;14.23;;;;;;;2.05;100.00;103356.75;5273854;28;20030;-73
2024/01/12 06:22:18;;;;;;;48.50;14.48;;;;;;;2.06;100.00;103355.00;5258505;28;20054;-73
2024/01/12 06:24:48;;;;;;;45.85;13.77;;;;;;;2.08;100.00;103356.69;5272583;28;20019;-73
2024/01/12 06:27:19;;;;;;;48.47;14.18;;;;;;;2.09;100.00;103357.53;5268731;28;20020;-73
2024/01/12 06:29:49;;;;;;;51.17;15.27;;;;;;;2.11;100.00;103362.78;5275674;27;20024;-74
2024/01/12 06:32:20;;;;;;;52.97;13.38;;;;;;;2.10;100.00;103361.06;5263757;28;20024;-73
2024/01/12 06:34:50;;;;;;;44.28;13.55;;;;;;;2.08;100.00;103363.75;5268207;28;20024;-73
2024/01/12 06:37:21;;;;;;;39.90;12.70;;;;;;;2.08;100.00;103363.75;5270758;28;20031;-73
2024/01/12 06:39:51;;;;;;;55.05;13.05;;;;;;;2.11;100.00;103365.44;5270115;28;20019;-73
2024/01/12 06:42:21;;;;;;;47.17;14.18;;;;;;;2.12;100.00;103360.09;5269045;28;20020;-73
2024/01/12 06:44:52;;;;;;;44.20;12.63;;;;;;;2.13;100.00;103363.63;5274922;28;20076;-73
2024/01/12 06:47:23;;;;;;;39.55;12.93;;;;;;;2.12;100.00;103351.28;5272399;28;20066;-73
2024/01/12 06:49:54;;;;;;;48.30;12.63;;;;;;;2.12;100.00;103364.53;5276360;28;20044;-73
2024/01/12 06:52:25;;;;;;;40.85;13.05;;;;;;;2.10;100.00;103375.16;5269548;28;20028;-73
2024/01/12 06:54:55;;;;;;;41.75;12.93;;;;;;;2.13;100.00;103374.22;5274934;28;20024;-73
2024/01/12 06:57:26;;;;;;;44.67;12.95;;;;;;;2.13;100.00;103379.50;5262122;28;20032;-73
2024/01/12 06:59:56;;;;;;;39.10;12.45;;;;;;;2.15;100.00;103381.16;5274333;28;20088;-73
2024/01/12 07:02:27;;;;;;;42.08;12.85;;;;;;;2.18;100.00;103385.53;5271367;28;20038;-73
2024/01/12 07:04:57;;;;;;;42.22;13.23;;;;;;;2.21;100.00;103391.59;5273244;27;20020;-73
2024/01/12 07:07:28;;;;;;;37.55;12.90;;;;;;;2.19;100.00;103376.66;5274347;28;20031;-73
2024/01/12 07:09:58;;;;;;;38.67;13.32;;;;;;;2.17;100.00;103389.94;5272081;28;20031;-73
2024/01/12 07:12:29;;;;;;;48.13;12.75;;;;;;;2.13;100.00;103398.91;5269134;28;20024;-73
2024/01/12 07:14:59;;;;;;;44.08;12.27;;;;;;;2.14;100.00;103395.34;5272249;28;20035;-73
2024/01/12 07:17:30;;;;;;;32.17;13.43;;;;;;;2.13;100.00;103398.91;5271233;28;20035;-73
2024/01/12 07:20:00;;;;;;;47.40;15.77;;;;;;;2.15;100.00;103394.41;5272489;28;20112;-73
2024/01/12 07:22:30;;;;;;;46.35;14.18;;;;;;;2.14;100.00;103397.13;5270903;28;20031;-73
2024/01/12 07:25:01;;;;;;;48.72;12.93;;;;;;;2.13;100.00;103398.03;5267207;28;20027;-73
2024/01/12 07:27:31;;;;;;;58.78;13.02;;;;;;;2.13;100.00;103406.84;5273161;28;20636;-73
2024/01/12 07:30:03;;;;;;;54.58;13.02;;;;;;;2.11;100.00;103405.16;5272030;28;20049;-73
2024/01/12 07:32:35;;;;;;;44.55;13.30;;;;;;;2.12;100.00;103407.78;5272559;28;20027;-73
2024/01/12 07:35:05;;;;;;;50.22;14.27;;;;;;;2.12;100.00;103410.41;5269983;28;20053;-74
2024/01/12 07:37:36;;;;;;;42.88;12.85;;;;;;;2.12;100.00;103412.22;5263591;28;20031;-74
2024/01/12 07:40:07;;;;;;;54.15;14.70;;;;;;;2.13;100.00;103412.16;5261761;28;20426;-76
2024/01/12 07:42:38;;;;;;;51.47;14.98;;;;;;;2.13;100.00;103414.78;5269533;28;20361;-76
2024/01/12 07:45:11;;;;;;;50.17;13.63;;;;;;;2.16;100.00;103408.53;5269301;28;20128;-74
2024/01/12 07:47:41;;;;;;;39.25;13.98;;;;;;;2.16;100.00;103408.53;5269910;28;20388;-74
2024/01/12 07:50:12;;;;;;;50.40;14.75;;;;;;;2.18;100.00;103412.88;5267973;28;20028;-74
2024/01/12 07:52:42;;;;;;;54.28;15.93;;;;;;;2.22;100.00;103416.28;5269588;28;20026;-74
2024/01/12 07:55:13;;;;;;;50.30;15.02;;;;;;;2.26;100.00;103408.19;5269361;28;20442;-74
2024/01/12 07:57:43;;;;;;;42.50;15.57;;;;;;;2.28;100.00;103406.34;5273689;28;20558;-76
2024/01/12 08:00:14;;;;;;;48.67;14.85;;;;;;;2.27;100.00;103409.94;5262236;28;20103;-74
2024/01/12 08:02:45;;;;;;;41.95;14.68;;;;;;;2.25;100.00;103406.44;5271445;28;20700;-74
2024/01/12 08:05:15;;;;;;;43.25;14.82;;;;;;;2.29;100.00;103408.06;5267396;28;20107;-75
2024/01/12 08:07:46;;;;;;;53.58;15.23;;;;;;;2.27;100.00;103401.97;5267861;28;20110;-74
2024/01/12 08:10:17;;;;;;;46.85;14.77;;;;;;;2.26;100.00;103400.25;5266643;28;20490;-74
2024/01/12 08:12:48;;;;;;;41.17;15.05;;;;;;;2.25;100.00;103398.50;5264563;27;20043;-76
2024/01/12 08:15:18;;;;;;;43.60;15.40;;;;;;;2.23;100.00;103395.03;5267901;28;20028;-74
2024/01/12 08:17:49;;;;;;;54.50;14.55;;;;;;;2.28;100.00;103387.81;5270870;28;20024;-74
2024/01/12 08:20:19;;;;;;;38.70;14.93;;;;;;;2.31;100.00;103382.41;5266176;28;20065;-74
2024/01/12 08:22:49;;;;;;;37.63;14.40;;;;;;;2.35;100.00;103383.16;5269675;28;20039;-76
2024/01/12 08:25:20;;;;;;;43.58;14.85;;;;;;;2.42;100.00;103378.56;5265900;28;20035;-74
2024/01/12 08:27:51;;;;;;;38.65;13.90;;;;;;;2.45;100.00;103384.59;5271012;28;20031;-74
2024/01/12 08:30:21;;;;;;;52.47;15.68;;;;;;;2.44;100.00;103382.88;5266404;28;20027;-74
2024/01/12 08:32:52;;;;;;;47.38;14.43;;;;;;;2.44;100.00;103382.88;5268414;28;20430;-76
2024/01/12 08:35:22;;;;;;;43.20;14.00;;;;;;;2.48;100.00;103389.78;5266182;28;20020;-74
2024/01/12 08:37:53;;;;;;;62.33;16.60;;;;;;;2.52;100.00;103388.78;5268896;28;20036;-74
2024/01/12 08:40:23;;;;;;;46.85;14.30;;;;;;;2.55;100.00;103382.50;5266978;28;20601;-74
2024/01/12 08:42:56;;;;;;;46.60;14.98;;;;;;;2.58;100.00;103380.63;5269671;28;20034;-74
2024/01/12 08:45:26;;;;;;;48.15;13.90;;;;;;;2.63;100.00;103383.09;5265556;28;20053;-74
2024/01/12 08:47:58;;;;;;;34.55;12.70;;;;;;;2.65;100.00;103388.34;5268591;28;20132;-74
2024/01/12 08:50:30;;;;;;;46.38;14.68;;;;;;;2.63;100.00;103385.75;5266494;28;20028;-75
2024/01/12 08:53:00;;;;;;;51.65;13.82;;;;;;;2.65;100.00;103389.22;5265876;28;20019;-75
2024/01/12 08:55:31;;;;;;;44.92;13.70;;;;;;;2.67;100.00;103383.88;5268799;28;20393;-74
2024/01/12 08:58:01;;;;;;;41.33;14.25;;;;;;;2.69;100.00;103388.19;5263570;28;20036;-74
2024/01/12 09:00:32;;;;;;;49.35;14.95;;;;;;;2.69;100.00;103392.63;5263399;28;20362;-74
2024/01/12 09:03:03;;;;;;;46.03;14.50;;;;;;;2.71;100.00;103391.66;5266221;28;20016;-75
2024/01/12 09:05:33;;;;;;;44.17;13.50;;;;;;;2.74;100.00;103388.03;5265740;28;20024;-73
2024/01/12 09:08:04;;;;;;;36.60;13.65;;;;;;;2.75;100.00;103401.22;5266705;28;20492;-73
2024/01/12 09:10:35;;;;;;;49.47;14.98;;;;;;;2.78;100.00;103400.25;5267288;28;20052;-73
2024/01/12 09:13:05;;;;;;;47.58;13.07;;;;;;;2.78;100.00;103394.97;5265308;28;20073;-73
2024/01/12 09:15:36;;;;;;;44.58;15.07;;;;;;;2.78;100.00;103398.47;5268563;28;20036;-73
2024/01/12 09:18:06;;;;;;;39.40;14.05;;;;;;;2.79;100.00;103408.16;5267223;28;20063;-73
2024/01/12 09:20:37;;;;;;;44.38;15.10;;;;;;;2.80;100.00;103407.22;5266976;28;20039;-73
2024/01/12 09:23:08;;;;;;;36.55;13.60;;;;;;;2.81;100.00;103403.69;5266720;28;20020;-73
2024/01/12 09:25:39;;;;;;;43.15;14.43;;;;;;;2.84;100.00;103408.88;5265337;28;20031;-73
2024/01/12 09:28:09;;;;;;;42.45;14.93;;;;;;;2.87;100.00;103412.34;5268015;28;20084;-73
2024/01/12 09:30:41;;;;;;;51.72;14.40;;;;;;;2.88;100.00;103412.28;5267833;28;20016;-73
2024/01/12 09:33:11;;;;;;;51.42;14.18;;;;;;;2.89;100.00;103419.31;5265530;28;20023;-73
2024/01/12 09:35:41;;;;;;;40.25;14.77;;;;;;;2.89;100.00;103415.78;5265539;28;20028;-73
2024/01/12 09:38:12;;;;;;;45.53;15.30;;;;;;;2.90;100.00;103413.06;5264753;28;20076;-73
2024/01/12 09:40:43;;;;;;;40.22;15.93;;;;;;;2.92;100.00;103415.69;5268162;28;20073;-73
2024/01/12 09:43:14;;;;;;;56.92;16.67;;;;;;;2.94;100.00;103413.84;5266663;28;20077;-73
2024/01/12 09:45:45;;;;;;;42.08;15.23;;;;;;;2.94;100.00;103409.41;5266427;28;20031;-73
2024/01/12 09:48:16;;;;;;;43.63;17.00;;;;;;;2.99;100.00;103418.06;5266716;28;20366;-73
2024/01/12 09:50:53;;;;;;;51.53;15.25;;;;;;;3.00;100.00;103411.84;5264133;28;20039;-73
2024/01/12 09:53:23;;;;;;;50.88;18.38;;;;;;;3.02;100.00;103422.41;5265783;28;20032;-73
2024/01/12 09:55:54;;;;;;;55.85;15.85;;;;;;;3.04;100.00;103409.94;5268810;28;20498;-73
2024/01/12 09:58:24;;;;;;;41.80;16.25;;;;;;;3.04;100.00;103421.41;5262043;28;20036;-73
2024/01/12 10:00:55;;;;;;;51.30;16.55;;;;;;;3.05;100.00;103420.50;5268699;28;20114;-73
2024/01/12 10:03:26;;;;;;;60.20;16.55;;;;;;;3.10;100.00;103420.34;5268845;28;20528;-73
2024/01/12 10:05:56;;;;;;;44.45;16.50;;;;;;;3.10;100.00;103417.69;5272576;28;20157;-73
2024/01/12 10:08:35;;;;;;;52.28;15.90;;;;;;;3.15;100.00;103418.38;5268480;28;20030;-73
2024/01/12 10:11:06;;;;;;;41.60;14.27;;;;;;;3.16;100.00;103420.09;5263733;28;20050;-73
2024/01/12 10:13:36;;;;;;;37.28;16.27;;;;;;;3.17;100.00;103415.69;5263421;28;20024;-73
2024/01/12 10:16:07;;;;;;;56.63;15.43;;;;;;;3.19;100.00;103417.34;5270248;28;20031;-73
2024/01/12 10:18:38;;;;;;;51.15;16.00;;;;;;;3.20;100.00;103413.78;5266976;28;20028;-73
2024/01/12 10:21:09;;;;;;;64.85;18.10;;;;;;;3.26;100.00;103417.97;5266758;28;20024;-73
2024/01/12 10:23:41;;;;;;;41.90;16.08;;;;;;;3.26;100.00;103421.53;5267337;28;20028;-73
2024/01/12 10:26:16;;;;;;;41.55;14.65;;;;;;;3.28;100.00;103411.72;5267541;28;20085;-73
2024/01/12 10:28:46;;;;;;;44.35;14.38;;;;;;;3.30;100.00;103411.66;5267635;28;20100;-74
2024/01/12 10:31:18;;;;;;;46.22;14.77;;;;;;;3.27;100.00;103423.25;5263526;28;20027;-73
2024/01/12 10:33:49;;;;;;;48.67;15.85;;;;;;;3.31;100.00;103416.91;5262875;28;20024;-73
2024/01/12 10:36:21;;;;;;;48.08;16.10;;;;;;;3.31;100.00;103413.38;5268679;28;20104;-73
2024/01/12 10:38:53;;;;;;;46.25;16.15;;;;;;;3.31;100.00;103416.91;5263916;28;20028;-73
2024/01/12 10:41:25;;;;;;;53.63;15.23;;;;;;;3.22;100.00;103409.28;5265604;28;20031;-73
2024/01/12 10:43:58;;;;;;;82.45;23.50;;;;;;;3.26;100.00;103408.25;5262453;28;20024;-73
2024/01/12 10:46:35;;;;;;;68.78;20.70;;;;;;;3.29;100.00;103404.63;5264473;28;20689;-74
2024/01/12 10:49:14;;;;;;;54.42;15.63;;;;;;;3.32;100.00;103397.41;5266333;28;20366;-73
2024/01/12 10:52:06;;;;;;;42.45;15.38;;;;;;;3.28;100.00;103392.28;5262600;28;20024;-73
2024/01/12 10:54:51;;;;;;;54.03;14.70;;;;;;;3.24;100.00;103391.53;5265578;28;20028;-73
2024/01/12 10:57:22;;;;;;;43.83;14.27;;;;;;;3.29;100.00;103383.38;5257999;28;20421;-73
2024/01/12 10:59:53;;;;;;;36.28;14.95;;;;;;;3.20;100.00;103384.59;5267433;28;20016;-73
2024/01/12 11:02:24;;;;;;;50.65;15.57;;;;;;;3.18;100.00;103382.94;5265616;28;20085;-73
2024/01/12 11:04:57;;;;;;;48.10;16.27;;;;;;;3.19;100.00;103387.31;5264767;28;20032;-73
2024/01/12 11:07:28;;;;;;;43.78;16.58;;;;;;;3.27;100.00;103387.91;5263472;28;20493;-73
2024/01/12 11:09:59;;;;;;;55.97;15.48;;;;;;;3.13;100.00;103376.94;5265208;27;20102;-74
2024/01/12 11:12:33;;;;;;;51.00;16.05;;;;;;;3.14;100.00;103374.22;5264612;28;20047;-73
2024/01/12 11:15:05;;;;;;;38.08;15.48;;;;;;;3.20;100.00;103373.13;5264053;28;20032;-73
2024/01/12 11:17:36;;;;;;;47.15;15.45;;;;;;;3.28;100.00;103374.56;5266466;28;20028;-73
2024/01/12 11:20:12;;;;;;;46.55;16.58;;;;;;;3.41;100.00;103374.09;5265766;28;20028;-73
2024/01/12 11:22:46;;;;;;;42.88;14.88;;;;;;;3.33;100.00;103372.59;5265444;28;20028;-73
2024/01/12 11:25:19;;;;;;;44.30;14.23;;;;;;;3.25;100.00;103369.38;5263296;28;20384;-73